createdAt,value
2022-08-09T00:00:04.928Z,19.50
2022-08-09T00:03:00.276Z,19.50
2022-08-09T00:06:19.833Z,19.50
2022-08-09T00:08:31.834Z,19.40
2022-08-09T00:11:05.947Z,19.40
2022-08-09T00:13:50.577Z,19.40
2022-08-09T00:16:26.063Z,19.30
2022-08-09T00:19:09.388Z,19.30
2022-08-09T00:21:56.117Z,19.20
2022-08-09T00:24:27.247Z,19.20
2022-08-09T00:26:57.448Z,19.10
2022-08-09T00:29:39.146Z,19.10
2022-08-09T00:32:26.665Z,19.00
2022-08-09T00:35:03.857Z,19.00
2022-08-09T00:37:32.444Z,19.00
2022-08-09T00:40:09.028Z,19.00
2022-08-09T00:44:14.660Z,18.90
2022-08-09T00:45:26.298Z,18.90
2022-08-09T00:47:55.460Z,18.90
2022-08-09T00:50:24.623Z,18.80
2022-08-09T00:52:54.187Z,18.80
2022-08-09T00:56:03.808Z,18.80
2022-08-09T00:58:14.504Z,18.70
2022-08-09T01:00:44.436Z,18.70
2022-08-09T01:03:28.979Z,18.60
2022-08-09T01:06:13.789Z,18.60
2022-08-09T01:09:10.989Z,18.60
2022-08-09T01:11:55.982Z,18.50
2022-08-09T01:14:43.862Z,18.50
2022-08-09T01:17:24.373Z,18.50
2022-08-09T01:20:25.239Z,18.40
2022-08-09T01:24:03.531Z,18.40
2022-08-09T01:26:32.655Z,18.40
2022-08-09T01:29:03.852Z,18.30
2022-08-09T01:32:31.947Z,18.30
2022-08-09T01:34:25.052Z,18.20
2022-08-09T01:36:56.827Z,18.20
2022-08-09T01:39:26.764Z,18.20
2022-08-09T01:42:00.604Z,18.10
2022-08-09T01:44:33.109Z,18.10
2022-08-09T01:47:03.983Z,18.10
2022-08-09T01:49:38.981Z,18.00
2022-08-09T01:52:14.510Z,18.00
2022-08-09T01:54:56.464Z,17.90
2022-08-09T01:57:30.096Z,17.90
2022-08-09T02:00:34.817Z,17.90
2022-08-09T02:03:03.047Z,17.80
2022-08-09T02:05:35.494Z,17.90
2022-08-09T02:08:40.229Z,17.80
2022-08-09T02:11:16.626Z,17.80
2022-08-09T02:14:06.398Z,17.80
2022-08-09T02:16:59.792Z,17.70
2022-08-09T02:19:34.998Z,17.70
2022-08-09T02:22:35.712Z,17.60
2022-08-09T02:25:19.224Z,17.60
2022-08-09T02:28:03.557Z,17.60
2022-08-09T02:30:44.340Z,17.60
2022-08-09T02:33:37.802Z,17.50
2022-08-09T02:36:26.364Z,17.50
2022-08-09T02:38:58.421Z,17.50
2022-08-09T02:41:36.407Z,17.50
2022-08-09T02:44:13.793Z,17.50
2022-08-09T02:47:04.178Z,17.40
2022-08-09T02:49:38.975Z,17.40
2022-08-09T02:52:15.227Z,17.40
2022-08-09T02:54:51.206Z,17.40
2022-08-09T02:57:25.225Z,17.30
2022-08-09T03:00:21.117Z,17.30
2022-08-09T03:02:59.861Z,17.30
2022-08-09T03:05:34.152Z,17.30
2022-08-09T03:08:07.292Z,17.20
2022-08-09T03:10:38.897Z,17.20
2022-08-09T03:13:11.182Z,17.20
2022-08-09T03:16:06.208Z,17.20
2022-08-09T03:18:34.037Z,17.20
2022-08-09T03:23:24.401Z,17.10
2022-08-09T03:25:56.994Z,17.10
2022-08-09T03:28:28.486Z,17.10
2022-08-09T03:30:59.838Z,17.10
2022-08-09T03:33:52.970Z,17.10
2022-08-09T03:36:26.962Z,17.10
2022-08-09T03:38:57.284Z,17.10
2022-08-09T03:41:29.687Z,17.00
2022-08-09T03:44:12.843Z,17.00
2022-08-09T03:46:40.997Z,17.00
2022-08-09T03:49:09.848Z,17.00
2022-08-09T03:51:58.290Z,16.90
2022-08-09T03:54:38.553Z,16.90
2022-08-09T03:57:18.450Z,16.90
2022-08-09T03:59:56.128Z,16.80
2022-08-09T04:02:31.507Z,16.80
2022-08-09T04:05:06.103Z,16.70
2022-08-09T04:07:53.294Z,16.70
2022-08-09T04:10:28.393Z,16.70
2022-08-09T04:13:00.846Z,16.70
2022-08-09T04:15:51.933Z,16.70
2022-08-09T04:18:21.557Z,16.70
2022-08-09T04:20:51.329Z,16.70
2022-08-09T04:23:23.435Z,16.70
2022-08-09T04:25:54.715Z,16.70
2022-08-09T04:28:33.873Z,16.60
2022-08-09T04:31:09.877Z,16.60
2022-08-09T04:33:52.106Z,16.60
2022-08-09T04:36:27.924Z,16.60
2022-08-09T04:38:59.184Z,16.50
2022-08-09T04:41:33.355Z,16.50
2022-08-09T04:44:05.662Z,16.50
2022-08-09T04:46:57.498Z,16.50
2022-08-09T04:49:54.457Z,16.50
2022-08-09T04:52:26.909Z,16.50
2022-08-09T04:55:01.040Z,16.50
2022-08-09T04:57:53.967Z,16.40
2022-08-09T05:00:18.879Z,16.40
2022-08-09T05:02:51.963Z,16.40
2022-08-09T05:05:32.085Z,16.40
2022-08-09T05:08:14.007Z,16.40
2022-08-09T05:10:43.870Z,16.40
2022-08-09T05:13:14.443Z,16.40
2022-08-09T05:15:52.092Z,16.40
2022-08-09T05:18:50.488Z,16.50
2022-08-09T05:21:24.425Z,16.50
2022-08-09T05:23:57.854Z,16.50
2022-08-09T05:26:36.890Z,16.50
2022-08-09T05:29:21.497Z,16.50
2022-08-09T05:31:57.602Z,16.50
2022-08-09T05:34:32.094Z,16.50
2022-08-09T05:37:06.711Z,16.50
2022-08-09T05:39:43.775Z,16.60
2022-08-09T05:42:17.495Z,16.60
2022-08-09T05:44:52.284Z,16.70
2022-08-09T05:47:23.143Z,16.70
2022-08-09T05:50:31.296Z,16.80
2022-08-09T05:52:44.500Z,16.80
2022-08-09T05:55:24.307Z,16.90
2022-08-09T06:00:20.926Z,17.10
2022-08-09T06:02:54.496Z,17.20
2022-08-09T06:05:30.826Z,17.20
2022-08-09T06:08:19.900Z,17.40
2022-08-09T06:10:57.043Z,17.50
2022-08-09T06:13:28.776Z,17.70
2022-08-09T06:16:04.505Z,17.80
2022-08-09T06:18:35.276Z,17.80
2022-08-09T06:21:06.657Z,17.90
2022-08-09T06:23:58.482Z,18.10
2022-08-09T06:26:28.408Z,18.20
2022-08-09T06:29:00.035Z,18.40
2022-08-09T06:31:39.191Z,18.50
2022-08-09T06:34:09.477Z,18.60
2022-08-09T06:36:42.889Z,18.70
2022-08-09T06:39:13.580Z,18.70
2022-08-09T06:42:09.244Z,18.70
2022-08-09T06:44:33.131Z,18.70
2022-08-09T06:47:03.734Z,18.80
2022-08-09T06:50:11.363Z,18.90
2022-08-09T06:52:20.611Z,19.00
2022-08-09T06:54:54.256Z,19.10
2022-08-09T06:57:42.428Z,19.20
2022-08-09T07:00:52.617Z,19.40
2022-08-09T07:03:05.345Z,19.50
2022-08-09T07:06:02.295Z,19.70
2022-08-09T07:08:22.721Z,19.70
2022-08-09T07:10:52.684Z,19.70
2022-08-09T07:13:28.225Z,19.70
2022-08-09T07:16:42.755Z,19.80
2022-08-09T07:18:47.341Z,19.90
2022-08-09T07:21:18.775Z,20.10
2022-08-09T07:23:57.834Z,20.20
2022-08-09T07:26:26.527Z,20.20
2022-08-09T07:29:09.187Z,20.40
2022-08-09T07:31:45.203Z,20.50
2022-08-09T07:34:20.712Z,20.70
2022-08-09T07:36:49.947Z,20.80
2022-08-09T07:39:20.461Z,20.80
2022-08-09T07:42:07.479Z,20.90
2022-08-09T07:44:52.043Z,21.10
2022-08-09T07:47:23.132Z,21.20
2022-08-09T07:50:05.347Z,21.20
2022-08-09T07:52:39.258Z,21.20
2022-08-09T07:55:11.611Z,21.50
2022-08-09T07:57:46.838Z,22.00
2022-08-09T08:00:36.210Z,22.60
2022-08-09T08:03:08.092Z,23.20
2022-08-09T08:05:39.294Z,23.70
2022-08-09T08:09:02.634Z,24.00
2022-08-09T08:12:10.475Z,24.00
2022-08-09T08:14:02.531Z,24.00
2022-08-09T08:16:32.159Z,23.80
2022-08-09T08:19:02.778Z,23.50
2022-08-09T08:21:32.143Z,23.40
2022-08-09T08:24:01.242Z,23.30
2022-08-09T08:26:54.528Z,23.50
2022-08-09T08:29:27.806Z,23.70
2022-08-09T08:32:05.997Z,23.60
2022-08-09T08:34:36.274Z,23.50
2022-08-09T08:37:05.759Z,23.30
2022-08-09T08:39:43.702Z,23.30
2022-08-09T08:42:13.826Z,23.30
2022-08-09T08:44:44.055Z,23.50
2022-08-09T08:47:15.969Z,23.80
2022-08-09T08:49:48.610Z,24.00
2022-08-09T08:52:58.317Z,24.40
2022-08-09T08:55:23.527Z,24.60
2022-08-09T08:57:57.196Z,24.60
2022-08-09T09:00:34.392Z,24.70
2022-08-09T09:03:12.166Z,24.70
2022-08-09T09:05:59.987Z,24.80
2022-08-09T09:08:40.729Z,24.90
2022-08-09T09:11:17.217Z,25.20
2022-08-09T09:13:57.187Z,25.30
2022-08-09T09:16:33.578Z,25.40
2022-08-09T09:19:37.408Z,25.40
2022-08-09T09:22:17.459Z,25.70
2022-08-09T09:26:04.851Z,26.00
2022-08-09T09:28:06.017Z,25.80
2022-08-09T09:30:41.971Z,25.90
2022-08-09T09:33:14.351Z,26.10
2022-08-09T09:36:01.387Z,26.00
2022-08-09T09:38:41.220Z,26.00
2022-08-09T09:41:12.283Z,26.20
2022-08-09T09:44:10.263Z,26.30
2022-08-09T09:46:42.605Z,26.40
2022-08-09T09:49:13.127Z,26.60
2022-08-09T09:51:42.209Z,26.60
2022-08-09T09:54:19.263Z,26.40
2022-08-09T09:56:53.224Z,26.40
2022-08-09T09:59:39.354Z,26.30
2022-08-09T10:02:08.486Z,26.20
2022-08-09T10:04:36.809Z,26.10
2022-08-09T10:07:10.100Z,26.00
2022-08-09T10:09:54.983Z,25.90
2022-08-09T10:12:43.469Z,25.90
2022-08-09T10:15:50.803Z,26.00
2022-08-09T10:18:12.017Z,26.00
2022-08-09T10:20:45.105Z,26.00
2022-08-09T10:23:22.032Z,26.00
2022-08-09T10:26:07.146Z,26.00
2022-08-09T10:28:48.642Z,26.10
2022-08-09T10:34:32.983Z,26.10
2022-08-09T10:36:57.755Z,26.20
2022-08-09T10:39:28.661Z,26.30
2022-08-09T10:41:57.566Z,26.30
2022-08-09T10:44:30.428Z,26.20
2022-08-09T10:48:13.349Z,26.20
2022-08-09T10:50:27.291Z,26.20
2022-08-09T10:53:05.596Z,26.30
2022-08-09T10:55:55.234Z,26.50
2022-08-09T10:58:37.277Z,26.60
2022-08-09T11:03:13.975Z,26.60
2022-08-09T11:04:30.365Z,26.50
2022-08-09T11:07:00.722Z,26.60
2022-08-09T11:09:38.366Z,26.60
2022-08-09T11:12:09.989Z,26.70
2022-08-09T11:14:48.643Z,26.60
2022-08-09T11:17:19.251Z,26.70
2022-08-09T11:20:11.571Z,26.70
2022-08-09T11:22:41.091Z,26.60
2022-08-09T11:25:14.902Z,26.60
2022-08-09T11:28:02.662Z,26.70
2022-08-09T11:30:36.743Z,26.70
2022-08-09T11:33:17.946Z,26.90
2022-08-09T11:35:58.229Z,26.80
2022-08-09T11:38:34.081Z,26.70
2022-08-09T11:41:38.296Z,26.50
2022-08-09T11:44:09.579Z,26.50
2022-08-09T11:46:54.962Z,26.60
2022-08-09T11:50:53.409Z,26.70
2022-08-09T11:53:57.774Z,26.70
2022-08-09T11:55:52.103Z,26.70
2022-08-09T11:58:32.350Z,26.60
2022-08-09T12:01:08.912Z,26.70
2022-08-09T12:03:57.151Z,26.70
2022-08-09T12:06:32.066Z,26.70
2022-08-09T12:09:03.897Z,26.80
2022-08-09T12:11:37.923Z,26.70
2022-08-09T12:14:40.752Z,26.70
2022-08-09T12:17:27.600Z,26.80
2022-08-09T12:20:22.870Z,26.80
2022-08-09T12:23:02.283Z,26.90
2022-08-09T12:25:37.279Z,26.90
2022-08-09T12:28:58.371Z,27.00
2022-08-09T12:31:11.063Z,27.10
2022-08-09T12:34:01.012Z,27.10
2022-08-09T12:36:31.791Z,27.20
2022-08-09T12:39:01.694Z,27.30
2022-08-09T12:41:38.242Z,27.30
2022-08-09T12:44:10.022Z,27.40
2022-08-09T12:46:48.859Z,27.50
2022-08-09T12:49:20.832Z,27.60
2022-08-09T12:52:02.850Z,27.70
2022-08-09T12:56:12.519Z,27.70
2022-08-09T12:57:42.543Z,27.80
2022-08-09T13:00:25.460Z,27.70
2022-08-09T13:02:59.712Z,27.80
2022-08-09T13:06:13.014Z,27.90
2022-08-09T13:08:39.718Z,28.00
2022-08-09T13:11:13.394Z,28.00
2022-08-09T13:14:42.803Z,28.00
2022-08-09T13:16:52.542Z,28.10
2022-08-09T13:20:09.068Z,28.10
2022-08-09T13:23:01.604Z,28.10
2022-08-09T13:25:53.349Z,28.00
2022-08-09T13:28:35.496Z,28.20
2022-08-09T13:32:14.406Z,28.30
2022-08-09T13:34:02.024Z,28.30
2022-08-09T13:36:40.246Z,28.30
2022-08-09T13:41:46.502Z,28.20
2022-08-09T13:42:12.131Z,28.20
2022-08-09T13:44:45.938Z,28.20
2022-08-09T13:47:30.982Z,28.10
2022-08-09T13:50:30.055Z,28.10
2022-08-09T13:52:59.796Z,28.20
2022-08-09T13:55:29.162Z,28.20
2022-08-09T13:57:59.592Z,28.00
2022-08-09T14:00:29.436Z,27.90
2022-08-09T14:03:04.677Z,27.90
2022-08-09T14:05:57.259Z,27.90
2022-08-09T14:08:31.510Z,27.90
2022-08-09T14:11:00.583Z,27.90
2022-08-09T14:14:24.621Z,27.90
2022-08-09T14:16:28.872Z,27.90
2022-08-09T14:18:58.361Z,28.00
2022-08-09T14:21:29.389Z,28.00
2022-08-09T14:24:10.002Z,28.00
2022-08-09T14:26:39.160Z,28.00
2022-08-09T14:29:25.392Z,27.90
2022-08-09T14:31:58.493Z,28.00
2022-08-09T14:34:34.348Z,28.00
2022-08-09T14:37:07.755Z,28.00
2022-08-09T14:39:46.709Z,28.20
2022-08-09T14:42:31.618Z,28.20
2022-08-09T14:46:46.080Z,28.10
2022-08-09T14:47:58.898Z,28.10
2022-08-09T14:50:33.102Z,28.20
2022-08-09T14:53:10.942Z,28.20
2022-08-09T14:55:49.851Z,28.10
2022-08-09T14:58:19.656Z,28.10
2022-08-09T15:00:51.254Z,28.10
2022-08-09T15:03:21.047Z,28.20
2022-08-09T15:05:50.502Z,28.20
2022-08-09T15:08:24.004Z,28.30
2022-08-09T15:11:01.393Z,28.30
2022-08-09T15:13:56.742Z,28.30
2022-08-09T15:16:22.073Z,28.20
2022-08-09T15:18:52.446Z,28.10
2022-08-09T15:21:58.617Z,28.00
2022-08-09T15:24:17.508Z,28.00
2022-08-09T15:26:47.570Z,28.00
2022-08-09T15:30:56.297Z,28.00
2022-08-09T15:32:29.084Z,28.00
2022-08-09T15:35:02.198Z,28.10
2022-08-09T15:37:56.758Z,28.20
2022-08-09T15:40:36.405Z,28.30
2022-08-09T15:43:04.224Z,28.20
2022-08-09T15:45:51.743Z,28.00
2022-08-09T15:48:29.234Z,27.90
2022-08-09T15:51:02.646Z,27.80
2022-08-09T15:54:03.445Z,27.80
2022-08-09T15:56:35.925Z,27.90
2022-08-09T15:59:04.122Z,27.90
2022-08-09T16:01:35.468Z,27.90
2022-08-09T16:04:04.419Z,27.90
2022-08-09T16:06:37.480Z,27.90
2022-08-09T16:09:06.485Z,28.00
2022-08-09T16:11:34.980Z,28.00
2022-08-09T16:14:07.929Z,28.10
2022-08-09T16:16:38.079Z,28.20
2022-08-09T16:19:10.255Z,28.10
2022-08-09T16:21:43.014Z,28.00
2022-08-09T16:24:32.714Z,27.90
2022-08-09T16:27:04.902Z,27.70
2022-08-09T16:29:37.969Z,27.60
2022-08-09T16:32:33.864Z,27.50
2022-08-09T16:35:03.133Z,27.50
2022-08-09T16:37:56.084Z,27.50
2022-08-09T16:40:30.073Z,27.40
2022-08-09T16:43:09.166Z,27.20
2022-08-09T16:45:43.651Z,27.10
2022-08-09T16:48:39.565Z,27.00
2022-08-09T16:51:08.256Z,26.90
2022-08-09T16:53:47.272Z,26.70
2022-08-09T16:56:26.229Z,26.50
2022-08-09T16:59:01.205Z,26.40
2022-08-09T17:01:33.824Z,26.50
2022-08-09T17:04:03.477Z,26.40
2022-08-09T17:06:33.686Z,26.30
2022-08-09T17:09:44.055Z,26.30
2022-08-09T17:12:06.889Z,26.30
2022-08-09T17:14:38.436Z,26.20
2022-08-09T17:17:26.350Z,26.20
2022-08-09T17:20:30.587Z,26.20
2022-08-09T17:22:50.254Z,26.10
2022-08-09T17:25:23.361Z,26.10
2022-08-09T17:27:53.687Z,26.00
2022-08-09T17:30:31.127Z,25.90
2022-08-09T17:33:05.754Z,25.90
2022-08-09T17:35:50.882Z,25.90
2022-08-09T17:38:31.991Z,25.80
2022-08-09T17:41:03.316Z,25.70
2022-08-09T17:43:36.931Z,25.50
2022-08-09T17:46:09.128Z,25.50
2022-08-09T17:48:46.593Z,25.40
2022-08-09T17:51:21.870Z,25.40
2022-08-09T17:53:54.804Z,25.20
2022-08-09T17:56:32.373Z,25.10
2022-08-09T17:59:09.371Z,25.00
2022-08-09T18:02:07.857Z,24.90
2022-08-09T18:04:31.490Z,24.70
2022-08-09T18:07:01.467Z,24.60
2022-08-09T18:09:41.342Z,24.50
2022-08-09T18:12:20.334Z,24.40
2022-08-09T18:14:54.743Z,24.30
2022-08-09T18:18:02.705Z,24.20
2022-08-09T18:20:55.624Z,24.10
2022-08-09T18:23:14.154Z,24.00
2022-08-09T18:25:57.799Z,23.90
2022-08-09T18:30:38.193Z,23.80
2022-08-09T18:31:25.115Z,23.70
2022-08-09T18:34:00.525Z,23.50
2022-08-09T18:36:32.467Z,23.50
2022-08-09T18:39:06.266Z,23.40
2022-08-09T18:41:35.866Z,23.40
2022-08-09T18:44:13.116Z,23.30
2022-08-09T18:46:50.679Z,23.20
2022-08-09T18:49:32.342Z,23.20
2022-08-09T18:52:11.838Z,23.10
2022-08-09T18:54:49.467Z,23.00
2022-08-09T18:57:23.829Z,22.90
2022-08-09T18:59:58.810Z,22.80
2022-08-09T19:02:32.557Z,22.70
2022-08-09T19:05:20.195Z,22.60
2022-08-09T19:08:04.227Z,22.50
2022-08-09T19:10:39.450Z,22.50
2022-08-09T19:13:23.267Z,22.40
2022-08-09T19:15:59.557Z,22.40
2022-08-09T19:18:34.042Z,22.30
2022-08-09T19:21:08.770Z,22.20
2022-08-09T19:24:39.489Z,22.20
2022-08-09T19:26:32.265Z,22.10
2022-08-09T19:29:03.226Z,22.10
2022-08-09T19:31:45.732Z,22.00
2022-08-09T19:34:22.062Z,22.00
2022-08-09T19:36:55.896Z,22.00
2022-08-09T19:39:43.095Z,21.90
2022-08-09T19:42:19.603Z,21.80
2022-08-09T19:44:53.072Z,21.80
2022-08-09T19:47:23.393Z,21.70
2022-08-09T19:50:09.904Z,21.70
2022-08-09T19:52:51.350Z,21.60
2022-08-09T19:55:30.406Z,21.50
2022-08-09T19:58:15.990Z,21.50
2022-08-09T20:00:46.883Z,21.40
2022-08-09T20:04:16.942Z,21.40
2022-08-09T20:06:22.164Z,21.40
2022-08-09T20:08:56.871Z,21.40
2022-08-09T20:11:27.184Z,21.30
2022-08-09T20:14:15.651Z,21.20
2022-08-09T20:16:53.765Z,21.20
2022-08-09T20:19:43.013Z,21.10
2022-08-09T20:22:14.507Z,21.10
2022-08-09T20:24:51.344Z,21.10
2022-08-09T20:27:22.902Z,21.10
2022-08-09T20:29:51.408Z,21.00
2022-08-09T20:32:33.126Z,21.00
2022-08-09T20:35:11.146Z,21.00
2022-08-09T20:38:21.120Z,21.00
2022-08-09T20:40:30.199Z,20.90
2022-08-09T20:43:18.889Z,20.80
2022-08-09T20:46:01.200Z,20.80
2022-08-09T20:48:38.203Z,20.70
2022-08-09T20:51:07.299Z,20.60
2022-08-09T20:53:48.798Z,20.60
2022-08-09T20:56:21.843Z,20.60
2022-08-09T20:58:54.693Z,20.60
2022-08-09T21:01:35.377Z,20.60
2022-08-09T21:05:51.899Z,20.60
2022-08-09T21:07:12.108Z,20.50
2022-08-09T21:09:55.753Z,20.50
2022-08-09T21:15:16.912Z,20.40
2022-08-09T21:18:23.979Z,20.30
2022-08-09T21:20:35.450Z,20.30
2022-08-09T21:24:28.740Z,20.30
2022-08-09T21:27:10.447Z,20.30
2022-08-09T21:29:50.295Z,20.20
2022-08-09T21:32:20.381Z,20.20
2022-08-09T21:35:04.331Z,20.10
2022-08-09T21:37:35.319Z,20.10
2022-08-09T21:40:10.928Z,20.00
2022-08-09T21:42:40.340Z,19.90
2022-08-09T21:45:15.779Z,19.90
2022-08-09T21:47:50.979Z,19.90
2022-08-09T21:50:23.060Z,19.90
2022-08-09T21:53:03.245Z,19.90
2022-08-09T21:55:32.173Z,19.80
2022-08-09T21:58:02.689Z,19.80
2022-08-09T22:00:33.550Z,19.80
2022-08-09T22:03:05.758Z,19.80
2022-08-09T22:05:37.203Z,19.80
2022-08-09T22:08:13.419Z,19.70
2022-08-09T22:11:50.538Z,19.70
2022-08-09T22:13:36.915Z,19.70
2022-08-09T22:16:09.215Z,19.70
2022-08-09T22:18:52.221Z,19.70
2022-08-09T22:21:27.313Z,19.70
2022-08-09T22:24:21.049Z,19.70
2022-08-09T22:26:53.285Z,19.70
2022-08-09T22:29:28.971Z,19.70
2022-08-09T22:32:29.235Z,19.70
2022-08-09T22:35:05.906Z,19.70
2022-08-09T22:37:40.295Z,19.70
2022-08-09T22:40:18.154Z,19.70
2022-08-09T22:42:48.738Z,19.70
2022-08-09T22:48:16.516Z,19.70
2022-08-09T22:48:19.333Z,19.70
2022-08-09T22:50:53.817Z,19.70
2022-08-09T22:53:22.917Z,19.70
2022-08-09T22:56:31.534Z,19.70
2022-08-09T22:58:39.817Z,19.70
2022-08-09T23:01:07.993Z,19.60
2022-08-09T23:04:03.721Z,19.60
2022-08-09T23:06:34.751Z,19.60
2022-08-09T23:09:06.203Z,19.50
2022-08-09T23:11:34.881Z,19.50
2022-08-09T23:14:03.652Z,19.50
2022-08-09T23:16:32.670Z,19.40
2022-08-09T23:19:02.041Z,19.40
2022-08-09T23:21:33.719Z,19.40
2022-08-09T23:24:07.151Z,19.40
2022-08-09T23:26:39.817Z,19.40
2022-08-09T23:29:11.676Z,19.30
2022-08-09T23:31:40.895Z,19.40
2022-08-09T23:36:29.586Z,19.30
2022-08-09T23:38:58.636Z,19.40
2022-08-09T23:41:28.739Z,19.30
2022-08-09T23:43:58.993Z,19.30
2022-08-09T23:46:31.832Z,19.30
2022-08-09T23:49:00.819Z,19.30
2022-08-09T23:51:29.613Z,19.20
2022-08-09T23:54:01.801Z,19.20
2022-08-09T23:56:52.809Z,19.20
2022-08-09T23:59:24.548Z,19.10
